createdAt,value
2022-11-03T00:01:03.578Z,8.20
2022-11-03T00:03:29.936Z,8.17
2022-11-03T00:06:05.371Z,8.20
2022-11-03T00:08:31.671Z,8.26
2022-11-03T00:11:04.988Z,8.32
2022-11-03T00:13:31.313Z,8.39
2022-11-03T00:15:57.631Z,8.47
2022-11-03T00:18:24.011Z,8.49
2022-11-03T00:20:57.161Z,8.53
2022-11-03T00:23:24.662Z,8.55
2022-11-03T00:25:50.969Z,8.60
2022-11-03T00:28:17.318Z,8.57
2022-11-03T00:30:43.698Z,8.60
2022-11-03T00:33:10.057Z,8.59
2022-11-03T00:35:36.377Z,8.70
2022-11-03T00:38:02.707Z,8.73
2022-11-03T00:40:29.028Z,8.67
2022-11-03T00:42:55.343Z,8.70
2022-11-03T00:45:21.680Z,8.73
2022-11-03T00:48:23.493Z,8.79
2022-11-03T00:50:49.815Z,8.79
2022-11-03T00:53:16.147Z,8.79
2022-11-03T00:55:42.529Z,8.77
2022-11-03T00:58:08.835Z,8.86
2022-11-03T01:00:35.163Z,8.80
2022-11-03T01:03:01.470Z,8.77
2022-11-03T01:05:46.674Z,8.79
2022-11-03T01:08:13.014Z,8.72
2022-11-03T01:10:59.319Z,8.68
2022-11-03T01:13:25.660Z,8.73
2022-11-03T01:15:51.987Z,8.76
2022-11-03T01:18:18.484Z,8.81
2022-11-03T01:20:44.802Z,8.74
2022-11-03T01:23:11.125Z,8.73
2022-11-03T01:25:37.456Z,8.77
2022-11-03T01:30:31.067Z,8.75
2022-11-03T01:32:57.391Z,8.81
2022-11-03T01:35:23.706Z,8.80
2022-11-03T01:37:50.076Z,8.82
2022-11-03T01:40:16.903Z,8.70
2022-11-03T01:42:43.218Z,8.76
2022-11-03T01:45:09.576Z,8.77
2022-11-03T01:47:36.027Z,8.73
2022-11-03T01:50:09.711Z,8.68
2022-11-03T01:52:47.117Z,8.63
2022-11-03T01:55:14.012Z,8.53
2022-11-03T01:57:41.513Z,8.60
2022-11-03T02:00:08.165Z,8.50
2022-11-03T02:02:34.522Z,8.50
2022-11-03T02:05:00.999Z,8.48
2022-11-03T02:07:39.521Z,8.35
2022-11-03T02:10:06.154Z,8.31
2022-11-03T02:12:32.483Z,8.31
2022-11-03T02:15:00.330Z,8.26
2022-11-03T02:17:27.472Z,8.20
2022-11-03T02:20:00.949Z,8.14
2022-11-03T02:22:27.235Z,8.11
2022-11-03T02:25:04.905Z,8.10
2022-11-03T02:27:31.229Z,7.96
2022-11-03T02:29:58.907Z,7.92
2022-11-03T02:32:26.821Z,7.87
2022-11-03T02:35:00.580Z,7.86
2022-11-03T02:37:30.493Z,7.82
2022-11-03T02:39:57.396Z,7.86
2022-11-03T02:42:23.733Z,7.86
2022-11-03T02:44:50.085Z,7.82
2022-11-03T02:47:16.782Z,7.77
2022-11-03T02:49:49.827Z,7.79
2022-11-03T02:52:35.421Z,7.78
2022-11-03T02:55:02.895Z,7.86
2022-11-03T02:57:29.879Z,7.91
2022-11-03T03:00:01.278Z,7.93
2022-11-03T03:02:32.403Z,8.08
2022-11-03T03:04:59.270Z,8.14
2022-11-03T03:07:27.006Z,8.16
2022-11-03T03:09:57.976Z,8.22
2022-11-03T03:12:24.524Z,8.31
2022-11-03T03:14:50.978Z,8.29
2022-11-03T03:17:23.346Z,8.39
2022-11-03T03:19:55.692Z,8.38
2022-11-03T03:22:31.111Z,8.42
2022-11-03T03:25:03.715Z,8.43
2022-11-03T03:27:30.217Z,8.45
2022-11-03T03:29:57.589Z,8.44
2022-11-03T03:32:24.353Z,8.42
2022-11-03T03:34:50.819Z,8.40
2022-11-03T03:37:17.689Z,8.41
2022-11-03T03:39:46.090Z,8.42
2022-11-03T03:42:12.409Z,8.44
2022-11-03T03:44:38.815Z,8.41
2022-11-03T03:47:07.305Z,8.37
2022-11-03T03:49:33.697Z,8.32
2022-11-03T03:52:00.026Z,8.34
2022-11-03T03:54:26.364Z,8.30
2022-11-03T03:57:03.118Z,8.24
2022-11-03T03:59:29.470Z,8.19
2022-11-03T04:01:55.912Z,8.17
2022-11-03T04:04:22.395Z,8.14
2022-11-03T04:06:48.883Z,8.15
2022-11-03T04:09:15.225Z,8.12
2022-11-03T04:12:00.220Z,8.15
2022-11-03T04:14:45.144Z,8.11
2022-11-03T04:17:38.066Z,8.04
2022-11-03T04:20:23.124Z,8.04
2022-11-03T04:22:49.443Z,8.06
2022-11-03T04:25:15.803Z,8.12
2022-11-03T04:27:42.214Z,8.11
2022-11-03T04:30:16.340Z,8.14
2022-11-03T04:32:46.605Z,8.10
2022-11-03T04:35:16.478Z,8.04
2022-11-03T04:37:46.542Z,8.14
2022-11-03T04:40:17.232Z,8.16
2022-11-03T04:42:44.206Z,8.12
2022-11-03T04:45:14.559Z,8.16
2022-11-03T04:47:40.895Z,8.19
2022-11-03T04:50:09.641Z,8.16
2022-11-03T04:52:35.959Z,8.15
2022-11-03T04:55:02.305Z,8.21
2022-11-03T04:57:28.628Z,8.14
2022-11-03T04:59:54.984Z,8.15
2022-11-03T05:02:21.378Z,8.19
2022-11-03T05:04:47.707Z,8.21
2022-11-03T05:07:23.035Z,8.15
2022-11-03T05:09:49.565Z,8.14
2022-11-03T05:12:16.205Z,8.12
2022-11-03T05:14:42.539Z,8.12
2022-11-03T05:17:17.818Z,8.10
2022-11-03T05:19:44.166Z,8.04
2022-11-03T05:22:15.739Z,8.01
2022-11-03T05:24:42.628Z,8.04
2022-11-03T05:27:11.425Z,8.02
2022-11-03T05:29:38.938Z,7.99
2022-11-03T05:32:10.408Z,7.91
2022-11-03T05:34:43.536Z,7.96
2022-11-03T05:37:26.141Z,7.96
2022-11-03T05:39:54.326Z,7.90
2022-11-03T05:42:24.497Z,7.94
2022-11-03T05:44:51.385Z,7.96
2022-11-03T05:47:50.322Z,8.00
2022-11-03T05:50:18.788Z,8.00
2022-11-03T05:52:45.662Z,8.05
2022-11-03T05:55:26.078Z,8.09
2022-11-03T05:57:53.201Z,8.09
2022-11-03T06:00:29.609Z,8.06
2022-11-03T06:02:56.942Z,8.02
2022-11-03T06:05:26.887Z,8.00
2022-11-03T06:07:53.620Z,8.02
2022-11-03T06:10:20.004Z,7.92
2022-11-03T06:12:46.318Z,7.98
2022-11-03T06:15:19.748Z,7.93
2022-11-03T06:17:46.412Z,7.94
2022-11-03T06:20:16.302Z,7.99
2022-11-03T06:22:43.026Z,8.04
2022-11-03T06:25:15.871Z,8.09
2022-11-03T06:27:42.472Z,8.05
2022-11-03T06:30:15.003Z,8.08
2022-11-03T06:32:41.315Z,8.07
2022-11-03T06:35:08.631Z,8.11
2022-11-03T06:37:35.965Z,8.04
2022-11-03T06:40:03.386Z,8.04
2022-11-03T06:42:32.265Z,8.10
2022-11-03T06:44:58.707Z,8.11
2022-11-03T06:47:28.475Z,8.09
2022-11-03T06:50:01.106Z,8.08
2022-11-03T06:52:31.095Z,8.08
2022-11-03T06:55:02.208Z,8.19
2022-11-03T06:57:28.925Z,8.18
2022-11-03T07:00:06.771Z,8.12
2022-11-03T07:03:02.040Z,8.09
2022-11-03T07:05:29.018Z,8.17
2022-11-03T07:08:00.745Z,8.20
2022-11-03T07:10:27.918Z,8.21
2022-11-03T07:12:54.487Z,8.22
2022-11-03T07:15:23.239Z,8.23
2022-11-03T07:17:49.569Z,8.27
2022-11-03T07:20:16.662Z,8.37
2022-11-03T07:22:43.281Z,8.37
2022-11-03T07:25:13.997Z,8.37
2022-11-03T07:27:40.317Z,8.46
2022-11-03T07:30:22.695Z,8.50
2022-11-03T07:32:49.661Z,8.53
2022-11-03T07:35:29.454Z,8.61
2022-11-03T07:38:09.142Z,8.66
2022-11-03T07:40:35.709Z,8.69
2022-11-03T07:43:08.568Z,8.74
2022-11-03T07:45:45.138Z,8.74
2022-11-03T07:48:24.251Z,8.80
2022-11-03T07:50:51.549Z,8.85
2022-11-03T07:53:37.306Z,8.92
2022-11-03T07:56:12.878Z,9.02
2022-11-03T07:58:39.599Z,9.01
2022-11-03T08:01:25.028Z,9.08
2022-11-03T08:03:51.521Z,9.19
2022-11-03T08:06:19.977Z,9.23
2022-11-03T08:08:46.588Z,9.26
2022-11-03T08:13:40.197Z,9.37
2022-11-03T08:16:06.614Z,9.27
2022-11-03T08:18:32.936Z,9.32
2022-11-03T08:20:59.296Z,9.24
2022-11-03T08:23:26.521Z,9.29
2022-11-03T08:25:53.148Z,9.38
2022-11-03T08:28:19.512Z,9.27
2022-11-03T08:30:45.909Z,9.34
2022-11-03T08:33:12.230Z,9.34
2022-11-03T08:35:38.650Z,9.30
2022-11-03T08:38:05.346Z,9.46
2022-11-03T08:40:31.920Z,9.48
2022-11-03T08:42:58.386Z,9.53
2022-11-03T08:45:24.765Z,9.70
2022-11-03T08:47:52.721Z,9.82
2022-11-03T08:50:19.114Z,9.91
2022-11-03T08:52:45.479Z,9.95
2022-11-03T08:55:11.827Z,9.94
2022-11-03T08:57:38.148Z,9.99
2022-11-03T09:00:05.886Z,9.89
2022-11-03T09:02:32.351Z,9.99
2022-11-03T09:04:59.046Z,10.13
2022-11-03T09:07:25.552Z,10.16
2022-11-03T09:10:20.376Z,10.33
2022-11-03T09:12:48.694Z,10.53
2022-11-03T09:15:15.035Z,10.61
2022-11-03T09:17:43.295Z,10.65
2022-11-03T09:20:12.025Z,10.65
2022-11-03T09:22:38.395Z,10.57
2022-11-03T09:25:05.037Z,10.55
2022-11-03T09:27:31.771Z,10.57
2022-11-03T09:30:12.797Z,10.58
2022-11-03T09:32:39.907Z,10.50
2022-11-03T09:35:06.467Z,10.49
2022-11-03T09:37:32.811Z,10.52
2022-11-03T09:39:59.183Z,10.44
2022-11-03T09:42:25.518Z,10.52
2022-11-03T09:44:52.437Z,10.48
2022-11-03T09:47:29.397Z,10.48
2022-11-03T09:49:55.737Z,10.51
2022-11-03T09:52:23.017Z,10.59
2022-11-03T09:54:49.508Z,10.65
2022-11-03T09:57:16.021Z,10.72
2022-11-03T09:59:46.207Z,10.87
2022-11-03T10:02:19.475Z,10.91
2022-11-03T10:04:45.862Z,10.99
2022-11-03T10:07:12.254Z,11.12
2022-11-03T10:09:39.305Z,11.12
2022-11-03T10:12:05.835Z,11.08
2022-11-03T10:14:32.165Z,11.10
2022-11-03T10:17:00.349Z,11.07
2022-11-03T10:19:26.897Z,11.24
2022-11-03T10:21:53.277Z,11.30
2022-11-03T10:24:19.596Z,11.51
2022-11-03T10:26:46.879Z,11.58
2022-11-03T10:31:51.861Z,11.73
2022-11-03T10:34:24.276Z,11.73
2022-11-03T10:36:51.075Z,11.90
2022-11-03T10:39:24.767Z,12.00
2022-11-03T10:41:58.521Z,12.21
2022-11-03T10:44:26.041Z,12.32
2022-11-03T10:46:59.554Z,12.30
2022-11-03T10:49:25.958Z,12.31
2022-11-03T10:51:52.883Z,12.33
2022-11-03T10:54:20.014Z,12.11
2022-11-03T10:56:46.410Z,12.06
2022-11-03T10:59:16.723Z,12.20
2022-11-03T11:01:43.158Z,12.28
2022-11-03T11:04:11.030Z,12.28
2022-11-03T11:06:37.642Z,12.29
2022-11-03T11:09:04.379Z,12.21
2022-11-03T11:11:30.722Z,12.28
2022-11-03T11:14:15.871Z,12.33
2022-11-03T11:16:52.131Z,12.40
2022-11-03T11:19:18.702Z,12.46
2022-11-03T11:21:45.364Z,12.43
2022-11-03T11:24:11.680Z,12.45
2022-11-03T11:26:38.725Z,12.51
2022-11-03T11:29:11.597Z,12.60
2022-11-03T11:31:44.413Z,12.60
2022-11-03T11:34:10.723Z,12.62
2022-11-03T11:36:37.563Z,12.59
2022-11-03T11:39:04.344Z,12.61
2022-11-03T11:41:49.522Z,12.61
2022-11-03T11:44:35.006Z,12.67
2022-11-03T11:47:01.405Z,12.69
2022-11-03T11:49:27.764Z,12.60
2022-11-03T11:51:54.649Z,12.62
2022-11-03T11:54:21.041Z,12.51
2022-11-03T11:56:47.621Z,12.53
2022-11-03T11:59:25.555Z,12.52
2022-11-03T12:01:52.607Z,12.52
2022-11-03T12:04:20.595Z,12.53
2022-11-03T12:06:47.651Z,12.54
2022-11-03T12:09:20.988Z,12.48
2022-11-03T12:11:55.501Z,12.40
2022-11-03T12:14:29.070Z,12.42
2022-11-03T12:16:55.735Z,12.46
2022-11-03T12:19:37.830Z,12.39
2022-11-03T12:22:05.053Z,12.47
2022-11-03T12:24:31.335Z,12.42
2022-11-03T12:26:57.978Z,12.33
2022-11-03T12:29:24.347Z,12.41
2022-11-03T12:31:50.686Z,12.33
2022-11-03T12:34:17.131Z,12.31
2022-11-03T12:36:43.845Z,12.32
2022-11-03T12:39:10.305Z,12.39
2022-11-03T12:41:36.660Z,12.25
2022-11-03T12:44:03.101Z,12.34
2022-11-03T12:46:29.481Z,12.27
2022-11-03T12:48:55.800Z,12.29
2022-11-03T12:51:22.952Z,12.29
2022-11-03T12:53:49.527Z,12.32
2022-11-03T12:56:16.385Z,12.30
2022-11-03T12:58:42.777Z,12.27
2022-11-03T13:01:09.260Z,12.28
2022-11-03T13:03:35.711Z,12.30
2022-11-03T13:06:04.424Z,12.29
2022-11-03T13:08:31.211Z,12.17
2022-11-03T13:10:57.609Z,12.21
2022-11-03T13:13:23.953Z,12.08
2022-11-03T13:15:50.275Z,12.08
2022-11-03T13:18:16.635Z,12.04
2022-11-03T13:20:44.898Z,11.98
2022-11-03T13:23:11.323Z,12.01
2022-11-03T13:25:37.895Z,12.06
2022-11-03T13:28:04.949Z,12.10
2022-11-03T13:30:31.310Z,12.09
2022-11-03T13:32:57.635Z,12.22
2022-11-03T13:35:23.980Z,12.32
2022-11-03T13:37:50.349Z,12.36
2022-11-03T13:40:50.331Z,12.48
2022-11-03T13:43:03.074Z,12.50
2022-11-03T13:45:29.402Z,12.52
2022-11-03T13:50:42.238Z,12.51
2022-11-03T13:55:57.522Z,12.47
2022-11-03T14:01:13.574Z,12.51
2022-11-03T14:06:26.465Z,12.42
2022-11-03T14:08:53.174Z,12.39
2022-11-03T14:11:38.476Z,12.43
2022-11-03T14:14:06.405Z,12.39
2022-11-03T14:16:33.466Z,12.42
2022-11-03T14:19:00.084Z,12.33
2022-11-03T14:21:26.466Z,12.31
2022-11-03T14:23:52.778Z,12.27
2022-11-03T14:26:40.209Z,12.21
2022-11-03T14:29:06.485Z,12.21
2022-11-03T14:31:32.832Z,12.20
2022-11-03T14:33:59.158Z,12.16
2022-11-03T14:36:25.515Z,12.10
2022-11-03T14:38:52.093Z,12.05
2022-11-03T14:41:44.746Z,11.99
2022-11-03T14:44:11.144Z,11.96
2022-11-03T14:46:37.618Z,11.81
2022-11-03T14:49:03.979Z,11.76
2022-11-03T14:51:31.271Z,11.78
2022-11-03T14:53:59.398Z,11.83
2022-11-03T14:56:25.807Z,11.74
2022-11-03T14:58:53.088Z,11.73
2022-11-03T15:01:19.758Z,11.80
2022-11-03T15:03:46.303Z,11.82
2022-11-03T15:06:12.694Z,11.78
2022-11-03T15:08:39.045Z,11.81
2022-11-03T15:11:07.749Z,11.74
2022-11-03T15:13:39.548Z,11.72
2022-11-03T15:16:10.544Z,11.69
2022-11-03T15:18:36.862Z,11.63
2022-11-03T15:21:03.208Z,11.64
2022-11-03T15:26:16.037Z,11.60
2022-11-03T15:28:42.597Z,11.62
2022-11-03T15:31:08.955Z,11.65
2022-11-03T15:33:35.362Z,11.64
2022-11-03T15:36:01.839Z,11.56
2022-11-03T15:38:28.200Z,11.58
2022-11-03T15:41:14.515Z,11.61
2022-11-03T15:43:47.974Z,11.58
2022-11-03T15:46:14.651Z,11.61
2022-11-03T15:48:41.040Z,11.59
2022-11-03T15:51:07.449Z,11.60
2022-11-03T15:53:33.778Z,11.57
2022-11-03T15:56:00.233Z,11.56
2022-11-03T15:58:26.559Z,11.55
2022-11-03T16:00:52.960Z,11.45
2022-11-03T16:03:19.370Z,11.42
2022-11-03T16:05:45.735Z,11.41
2022-11-03T16:08:12.290Z,11.54
2022-11-03T16:10:39.909Z,11.51
2022-11-03T16:13:08.717Z,11.51
2022-11-03T16:15:35.100Z,11.50
2022-11-03T16:18:02.717Z,11.49
2022-11-03T16:20:32.198Z,11.54
2022-11-03T16:22:58.548Z,11.48
2022-11-03T16:25:25.174Z,11.50
2022-11-03T16:27:51.848Z,11.54
2022-11-03T16:30:18.187Z,11.39
2022-11-03T16:32:44.617Z,11.39
2022-11-03T16:35:12.033Z,11.42
2022-11-03T16:37:38.438Z,11.40
2022-11-03T16:40:05.378Z,11.42
2022-11-03T16:42:38.169Z,11.35
2022-11-03T16:45:05.977Z,11.37
2022-11-03T16:47:33.058Z,11.32
2022-11-03T16:50:00.564Z,11.37
2022-11-03T16:52:27.923Z,11.32
2022-11-03T16:54:54.589Z,11.32
2022-11-03T16:57:21.286Z,11.25
2022-11-03T16:59:47.647Z,11.13
2022-11-03T17:02:16.505Z,11.19
2022-11-03T17:04:43.740Z,11.17
2022-11-03T17:07:10.763Z,11.16
2022-11-03T17:09:37.499Z,11.18
2022-11-03T17:12:04.324Z,11.05
2022-11-03T17:14:31.691Z,11.16
2022-11-03T17:16:59.242Z,11.06
2022-11-03T17:19:26.817Z,11.13
2022-11-03T17:21:56.382Z,11.08
2022-11-03T17:24:22.697Z,10.98
2022-11-03T17:26:56.610Z,10.94
2022-11-03T17:29:23.817Z,10.95
2022-11-03T17:31:50.217Z,10.97
2022-11-03T17:34:16.649Z,11.00
2022-11-03T17:36:42.999Z,11.03
2022-11-03T17:39:10.276Z,11.01
2022-11-03T17:41:37.411Z,11.13
2022-11-03T17:44:06.077Z,11.04
2022-11-03T17:46:32.648Z,11.00
2022-11-03T17:49:00.709Z,11.08
2022-11-03T17:51:27.049Z,11.02
2022-11-03T17:53:53.379Z,11.05
2022-11-03T17:56:34.951Z,11.01
2022-11-03T17:59:02.059Z,11.00
2022-11-03T18:01:28.977Z,11.02
2022-11-03T18:04:00.210Z,11.14
2022-11-03T18:06:26.660Z,11.12
2022-11-03T18:08:54.062Z,11.21
2022-11-03T18:11:43.497Z,11.23
2022-11-03T18:14:09.837Z,11.34
2022-11-03T18:16:36.763Z,11.32
2022-11-03T18:19:03.176Z,11.41
2022-11-03T18:21:29.884Z,11.41
2022-11-03T18:23:56.657Z,11.37
2022-11-03T18:26:23.638Z,11.43
2022-11-03T18:28:52.588Z,11.41
2022-11-03T18:31:49.932Z,11.43
2022-11-03T18:34:18.122Z,11.32
2022-11-03T18:36:46.333Z,11.32
2022-11-03T18:39:15.405Z,11.26
2022-11-03T18:41:44.100Z,11.26
2022-11-03T18:44:20.431Z,11.17
2022-11-03T18:46:47.387Z,11.17
2022-11-03T18:49:13.956Z,11.14
2022-11-03T18:51:41.609Z,11.15
2022-11-03T18:54:09.018Z,11.15
2022-11-03T18:56:38.142Z,11.09
2022-11-03T18:59:05.389Z,11.15
2022-11-03T19:01:34.453Z,11.14
2022-11-03T19:04:00.961Z,11.09
2022-11-03T19:06:27.854Z,11.05
2022-11-03T19:08:58.215Z,11.04
2022-11-03T19:11:24.642Z,10.99
2022-11-03T19:13:50.962Z,10.98
2022-11-03T19:16:20.193Z,10.99
2022-11-03T19:18:46.599Z,10.99
2022-11-03T19:21:15.339Z,10.93
2022-11-03T19:23:47.618Z,10.82
2022-11-03T19:26:15.996Z,10.77
2022-11-03T19:28:42.330Z,10.69
2022-11-03T19:31:11.907Z,10.65
2022-11-03T19:33:38.240Z,10.67
2022-11-03T19:36:07.785Z,10.63
2022-11-03T19:38:35.954Z,10.58
2022-11-03T19:41:20.774Z,10.59
2022-11-03T19:43:47.094Z,10.58
2022-11-03T19:46:16.400Z,10.46
2022-11-03T19:48:44.255Z,10.45
2022-11-03T19:51:12.867Z,10.42
2022-11-03T19:53:43.174Z,10.34
2022-11-03T19:56:16.697Z,10.29
2022-11-03T19:58:43.163Z,10.28
2022-11-03T20:01:09.543Z,10.26
2022-11-03T20:03:36.079Z,10.29
2022-11-03T20:06:02.477Z,10.34
2022-11-03T20:08:30.089Z,10.34
2022-11-03T20:10:56.627Z,10.35
2022-11-03T20:13:23.514Z,10.34
2022-11-03T20:15:57.361Z,10.34
2022-11-03T20:18:25.685Z,10.39
2022-11-03T20:20:52.303Z,10.40
2022-11-03T20:23:23.302Z,10.36
2022-11-03T20:25:49.623Z,10.31
2022-11-03T20:28:21.400Z,10.28
2022-11-03T20:30:49.270Z,10.30
2022-11-03T20:33:16.149Z,10.38
2022-11-03T20:35:42.632Z,10.40
2022-11-03T20:38:09.889Z,10.39
2022-11-03T20:40:36.514Z,10.46
2022-11-03T20:43:03.076Z,10.52
2022-11-03T20:45:30.213Z,10.51
2022-11-03T20:47:59.498Z,10.48
2022-11-03T20:50:26.099Z,10.54
2022-11-03T20:52:52.764Z,10.55
2022-11-03T20:55:24.200Z,10.52
2022-11-03T20:57:52.341Z,10.51
2022-11-03T21:00:21.520Z,10.48
2022-11-03T21:02:48.486Z,10.40
2022-11-03T21:05:17.830Z,10.35
2022-11-03T21:07:44.422Z,10.32
2022-11-03T21:10:13.707Z,10.31
2022-11-03T21:12:43.888Z,10.34
2022-11-03T21:16:18.296Z,10.24
2022-11-03T21:18:56.126Z,10.24
2022-11-03T21:21:22.424Z,10.23
2022-11-03T21:23:48.921Z,10.23
2022-11-03T21:26:15.488Z,10.19
2022-11-03T21:28:41.868Z,10.20
2022-11-03T21:31:12.246Z,10.23
2022-11-03T21:33:38.556Z,10.23
2022-11-03T21:36:05.086Z,10.27
2022-11-03T21:38:33.215Z,10.24
2022-11-03T21:41:19.717Z,10.24
2022-11-03T21:44:04.633Z,10.24
2022-11-03T21:46:31.358Z,10.19
2022-11-03T21:49:20.692Z,10.18
2022-11-03T21:51:47.811Z,10.23
2022-11-03T21:54:14.478Z,10.22
2022-11-03T21:56:41.031Z,10.23
2022-11-03T21:59:07.446Z,10.19
2022-11-03T22:01:34.923Z,10.25
2022-11-03T22:04:02.126Z,10.21
2022-11-03T22:06:28.440Z,10.25
2022-11-03T22:08:56.965Z,10.22
2022-11-03T22:11:23.361Z,10.21
2022-11-03T22:13:50.379Z,10.25
2022-11-03T22:16:36.382Z,10.22
2022-11-03T22:19:31.153Z,10.21
2022-11-03T22:22:18.161Z,10.23
2022-11-03T22:25:03.382Z,10.29
2022-11-03T22:27:30.276Z,10.35
2022-11-03T22:30:15.489Z,10.37
2022-11-03T22:32:42.028Z,10.37
2022-11-03T22:35:30.292Z,10.41
2022-11-03T22:38:07.173Z,10.41
2022-11-03T22:40:52.388Z,10.39
2022-11-03T22:43:37.580Z,10.44
2022-11-03T22:46:06.802Z,10.45
2022-11-03T22:48:33.184Z,10.45
2022-11-03T22:51:15.499Z,10.44
2022-11-03T22:54:00.791Z,10.44
2022-11-03T22:56:28.344Z,10.47
2022-11-03T22:58:55.279Z,10.47
2022-11-03T23:01:22.760Z,10.46
2022-11-03T23:03:49.289Z,10.44
2022-11-03T23:06:17.635Z,10.40
2022-11-03T23:08:45.527Z,10.42
2022-11-03T23:11:16.082Z,10.46
2022-11-03T23:13:47.621Z,10.44
2022-11-03T23:16:18.375Z,10.39
2022-11-03T23:19:03.141Z,10.38
2022-11-03T23:21:29.870Z,10.40
2022-11-03T23:24:15.006Z,10.42
2022-11-03T23:26:44.085Z,10.31
2022-11-03T23:29:10.872Z,10.35
2022-11-03T23:31:37.966Z,10.33
2022-11-03T23:34:04.734Z,10.34
2022-11-03T23:36:32.662Z,10.29
2022-11-03T23:38:59.477Z,10.31
2022-11-03T23:41:26.082Z,10.33
2022-11-03T23:43:52.775Z,10.32
2022-11-03T23:46:39.999Z,10.33
2022-11-03T23:51:48.675Z,10.31
2022-11-03T23:54:16.944Z,10.29
2022-11-03T23:57:03.758Z,10.23
2022-11-03T23:59:31.096Z,10.19
